Time;durP1;ratioP1;P1;durP2;ratioP2;P2;SDS_P1;SDS_P2;PMS_P1;PMS_P2;Temp;Humidity;BMP_temperature;BMP_pressure;BME280_temperature;BME280_humidity;BME280_pressure;Samples;Min_cycle;Max_cycle;Signal;HPM_P1;HPM_P2
2023/07/05 00:02:19;;;;;;;;;;;24.60;68.10;;;;;;5002383;28;92260;-47
2023/07/05 00:04:45;;;;;;;;;;;24.60;68.10;;;;;;5013257;28;92388;-45
2023/07/05 00:07:10;;;;;;;;;;;24.50;68.10;;;;;;5007357;28;92409;-47
2023/07/05 00:09:36;;;;;;;;;;;24.60;68.10;;;;;;5009556;28;92057;-45
2023/07/05 00:12:01;;;;;;;;;;;24.50;68.20;;;;;;5007126;28;93205;-44
2023/07/05 00:14:28;;;;;;;;;;;24.50;68.10;;;;;;5006877;28;92153;-45
2023/07/05 00:16:54;;;;;;;;;;;24.50;68.00;;;;;;5008850;28;93585;-43
2023/07/05 00:19:19;;;;;;;;;;;24.50;68.00;;;;;;4988856;28;95904;-48
2023/07/05 00:21:45;;;;;;;;;;;24.50;68.00;;;;;;5008242;28;92121;-46
2023/07/05 00:24:10;;;;;;;;;;;24.40;68.00;;;;;;5010793;28;93609;-44
2023/07/05 00:26:36;;;;;;;;;;;24.40;68.10;;;;;;5008699;28;92129;-46
2023/07/05 00:29:01;;;;;;;;;;;24.40;68.00;;;;;;5008258;28;92533;-44
2023/07/05 00:31:27;;;;;;;;;;;24.40;68.00;;;;;;5007438;28;94225;-44
2023/07/05 00:33:52;;;;;;;;;;;24.40;68.20;;;;;;5007256;28;92187;-44
2023/07/05 00:36:18;;;;;;;;;;;24.40;68.10;;;;;;5011189;28;92874;-44
2023/07/05 00:38:43;;;;;;;;;;;24.40;68.10;;;;;;5010341;28;93050;-46
2023/07/05 00:41:09;;;;;;;;;;;24.40;68.10;;;;;;5013087;28;91488;-44
2023/07/05 00:43:34;;;;;;;;;;;24.40;68.10;;;;;;5010225;28;92219;-44
2023/07/05 00:46:04;;;;;;;;;;;24.40;68.00;;;;;;5012668;28;93638;-45
2023/07/05 00:48:35;;;;;;;;;;;24.30;68.10;;;;;;5010544;28;93265;-45
2023/07/05 00:51:03;;;;;;;;;;;24.30;68.10;;;;;;5010455;28;93190;-45
2023/07/05 00:53:29;;;;;;;;;;;24.30;68.00;;;;;;5012438;28;92183;-45
2023/07/05 00:56:01;;;;;;;;;;;24.30;68.00;;;;;;5011117;28;92676;-44
2023/07/05 00:58:27;;;;;;;;;;;24.30;68.70;;;;;;5011166;28;93146;-45
2023/07/05 01:00:53;;;;;;;;;;;24.30;68.10;;;;;;5010178;28;92107;-47
2023/07/05 01:03:22;;;;;;;;;;;24.30;68.10;;;;;;5011375;28;92616;-46
2023/07/05 01:05:52;;;;;;;;;;;24.30;68.20;;;;;;5010556;28;91498;-45
2023/07/05 01:08:18;;;;;;;;;;;24.20;68.10;;;;;;5013533;28;92159;-45
2023/07/05 01:10:47;;;;;;;;;;;24.20;68.10;;;;;;5010967;28;93219;-44
2023/07/05 01:13:15;;;;;;;;;;;24.20;68.10;;;;;;5009706;28;93102;-44
2023/07/05 01:15:42;;;;;;;;;;;24.20;68.10;;;;;;5008423;28;93626;-44
2023/07/05 01:18:26;;;;;;;;;;;24.20;68.20;;;;;;5009884;28;92998;-44
2023/07/05 01:20:52;;;;;;;;;;;24.20;68.10;;;;;;5006251;28;92433;-44
2023/07/05 01:23:36;;;;;;;;;;;24.20;68.10;;;;;;5012732;28;92401;-44
2023/07/05 01:26:19;;;;;;;;;;;24.10;68.10;;;;;;5011858;28;93369;-44
2023/07/05 01:28:57;;;;;;;;;;;24.10;68.00;;;;;;5007836;28;92495;-44
2023/07/05 01:31:36;;;;;;;;;;;24.10;68.20;;;;;;5013088;28;92697;-44
2023/07/05 01:34:06;;;;;;;;;;;24.10;68.20;;;;;;5003452;28;92106;-45
2023/07/05 01:36:33;;;;;;;;;;;24.10;68.10;;;;;;5006341;28;92777;-46
2023/07/05 01:38:58;;;;;;;;;;;24.10;68.10;;;;;;5011590;28;94133;-45
2023/07/05 01:41:24;;;;;;;;;;;24.00;68.20;;;;;;5005564;28;92050;-46
2023/07/05 01:43:50;;;;;;;;;;;24.00;68.30;;;;;;5012863;28;92746;-45
2023/07/05 01:46:15;;;;;;;;;;;24.00;68.30;;;;;;4986242;28;96204;-44
2023/07/05 01:48:59;;;;;;;;;;;24.00;68.30;;;;;;5011338;28;92619;-45
2023/07/05 01:51:26;;;;;;;;;;;24.00;68.30;;;;;;5009189;28;92482;-47
2023/07/05 01:53:58;;;;;;;;;;;24.00;68.30;;;;;;5013326;28;94431;-46
2023/07/05 01:56:26;;;;;;;;;;;24.00;68.20;;;;;;5012095;28;92745;-46
2023/07/05 01:58:54;;;;;;;;;;;24.00;68.30;;;;;;5009345;28;94525;-44
2023/07/05 02:01:21;;;;;;;;;;;23.90;68.20;;;;;;5007953;28;92579;-44
2023/07/05 02:03:49;;;;;;;;;;;23.90;68.20;;;;;;5011093;28;93805;-44
2023/07/05 02:06:16;;;;;;;;;;;23.90;68.30;;;;;;5009062;28;94582;-44
2023/07/05 02:08:42;;;;;;;;;;;23.90;68.30;;;;;;5011579;28;92116;-44
2023/07/05 02:11:08;;;;;;;;;;;23.90;68.20;;;;;;5009857;28;92115;-46
2023/07/05 02:13:33;;;;;;;;;;;23.80;68.30;;;;;;5011071;28;92667;-46
2023/07/05 02:15:59;;;;;;;;;;;23.90;68.30;;;;;;5013061;28;92175;-45
2023/07/05 02:18:29;;;;;;;;;;;23.80;68.40;;;;;;5002696;28;94194;-45
2023/07/05 02:20:55;;;;;;;;;;;23.80;68.30;;;;;;5011426;28;91388;-47
2023/07/05 02:23:21;;;;;;;;;;;23.80;68.30;;;;;;5009779;28;93334;-45
2023/07/05 02:25:47;;;;;;;;;;;23.80;68.40;;;;;;5010397;28;93086;-46
2023/07/05 02:28:12;;;;;;;;;;;23.80;68.40;;;;;;5009698;28;93041;-45
2023/07/05 02:30:38;;;;;;;;;;;23.70;68.40;;;;;;5010379;28;93570;-45
2023/07/05 02:33:04;;;;;;;;;;;23.70;68.40;;;;;;5006726;28;93788;-45
2023/07/05 02:35:33;;;;;;;;;;;23.70;68.50;;;;;;5008412;28;92635;-47
2023/07/05 02:37:58;;;;;;;;;;;23.70;68.40;;;;;;5009591;28;93039;-45
2023/07/05 02:40:24;;;;;;;;;;;23.70;68.50;;;;;;5009943;28;92129;-46
2023/07/05 02:42:49;;;;;;;;;;;23.70;68.50;;;;;;5009208;28;93764;-46
2023/07/05 02:45:15;;;;;;;;;;;23.70;68.50;;;;;;5011129;28;92840;-47
2023/07/05 02:47:40;;;;;;;;;;;23.60;68.40;;;;;;5003898;28;92437;-45
2023/07/05 02:50:06;;;;;;;;;;;23.60;68.50;;;;;;5009817;28;92484;-48
2023/07/05 02:52:32;;;;;;;;;;;23.60;68.40;;;;;;5007502;28;93972;-45
2023/07/05 02:54:57;;;;;;;;;;;23.60;68.40;;;;;;5011651;28;92108;-46
2023/07/05 02:57:23;;;;;;;;;;;23.60;68.50;;;;;;5010802;28;92749;-47
2023/07/05 02:59:49;;;;;;;;;;;23.60;68.40;;;;;;5010400;28;92155;-46
2023/07/05 03:02:14;;;;;;;;;;;23.60;68.50;;;;;;5005960;28;93648;-48
2023/07/05 03:04:41;;;;;;;;;;;23.60;68.50;;;;;;5008489;28;93098;-44
2023/07/05 03:07:08;;;;;;;;;;;23.50;68.50;;;;;;5011417;28;92311;-47
2023/07/05 03:09:33;;;;;;;;;;;23.50;68.50;;;;;;5008062;28;93730;-47
2023/07/05 03:11:59;;;;;;;;;;;23.50;68.50;;;;;;5008062;28;93233;-46
2023/07/05 03:14:24;;;;;;;;;;;23.50;68.50;;;;;;5006805;28;92249;-44
2023/07/05 03:16:50;;;;;;;;;;;23.50;68.60;;;;;;5003615;28;93142;-45
2023/07/05 03:19:15;;;;;;;;;;;23.50;68.50;;;;;;5004524;28;92992;-52
2023/07/05 03:21:41;;;;;;;;;;;23.50;68.50;;;;;;5008839;28;94005;-49
2023/07/05 03:24:07;;;;;;;;;;;23.50;68.60;;;;;;4997639;28;94677;-50
2023/07/05 03:26:32;;;;;;;;;;;23.40;68.50;;;;;;5010109;28;92302;-51
2023/07/05 03:28:58;;;;;;;;;;;23.50;68.60;;;;;;5005663;28;93121;-49
2023/07/05 03:31:23;;;;;;;;;;;23.50;68.60;;;;;;5008667;28;93281;-48
2023/07/05 03:33:51;;;;;;;;;;;23.40;68.40;;;;;;5001948;28;91598;-48
2023/07/05 03:36:18;;;;;;;;;;;23.50;68.50;;;;;;4998767;28;92657;-50
2023/07/05 03:38:44;;;;;;;;;;;23.40;68.50;;;;;;5008258;28;92806;-47
2023/07/05 03:41:14;;;;;;;;;;;23.40;68.50;;;;;;5011583;28;93179;-49
2023/07/05 03:43:40;;;;;;;;;;;23.40;68.40;;;;;;5006662;28;94295;-45
2023/07/05 03:46:07;;;;;;;;;;;23.30;68.40;;;;;;4995808;28;92833;-49
2023/07/05 03:48:36;;;;;;;;;;;23.40;68.60;;;;;;5009638;28;92531;-44
2023/07/05 03:51:01;;;;;;;;;;;23.30;68.50;;;;;;5004238;28;93085;-44
2023/07/05 03:53:27;;;;;;;;;;;23.30;68.50;;;;;;4997701;28;94228;-44
2023/07/05 03:55:53;;;;;;;;;;;23.30;68.50;;;;;;5007590;28;93683;-47
2023/07/05 03:58:19;;;;;;;;;;;23.30;68.50;;;;;;5008381;28;91863;-44
2023/07/05 04:00:45;;;;;;;;;;;23.30;68.60;;;;;;5009025;28;93122;-47
2023/07/05 04:03:11;;;;;;;;;;;23.30;68.60;;;;;;4999329;28;92262;-45
2023/07/05 04:05:37;;;;;;;;;;;23.30;68.60;;;;;;5001604;28;93165;-44
2023/07/05 04:08:02;;;;;;;;;;;23.30;68.60;;;;;;5010221;28;93401;-45
2023/07/05 04:10:28;;;;;;;;;;;23.30;68.60;;;;;;5001132;28;93243;-44
2023/07/05 04:12:53;;;;;;;;;;;23.20;68.60;;;;;;5000852;28;92475;-44
2023/07/05 04:15:19;;;;;;;;;;;23.20;68.60;;;;;;5004138;28;92459;-47
2023/07/05 04:17:44;;;;;;;;;;;23.20;68.60;;;;;;5006419;28;93987;-46
2023/07/05 04:20:10;;;;;;;;;;;23.20;68.70;;;;;;5001142;28;92254;-45
2023/07/05 04:22:38;;;;;;;;;;;23.20;68.70;;;;;;5001864;28;92506;-45
2023/07/05 04:25:03;;;;;;;;;;;23.20;68.60;;;;;;5006454;28;92213;-45
2023/07/05 04:27:29;;;;;;;;;;;23.20;68.50;;;;;;5007944;28;94292;-45
2023/07/05 04:29:54;;;;;;;;;;;23.20;68.50;;;;;;4995511;28;94421;-44
2023/07/05 04:32:20;;;;;;;;;;;23.20;68.50;;;;;;5003734;28;92397;-45
2023/07/05 04:34:45;;;;;;;;;;;23.20;68.50;;;;;;5008085;28;92456;-45
2023/07/05 04:37:11;;;;;;;;;;;23.20;68.60;;;;;;5001936;28;94529;-45
2023/07/05 04:39:36;;;;;;;;;;;23.20;68.60;;;;;;5000228;28;92179;-44
2023/07/05 04:42:03;;;;;;;;;;;23.20;68.60;;;;;;5001885;28;94007;-46
2023/07/05 04:44:30;;;;;;;;;;;23.20;68.60;;;;;;5010423;28;94171;-44
2023/07/05 04:46:55;;;;;;;;;;;23.20;68.60;;;;;;5001717;28;92469;-47
2023/07/05 04:49:21;;;;;;;;;;;23.20;68.60;;;;;;4998689;28;93655;-44
2023/07/05 04:51:46;;;;;;;;;;;23.20;68.50;;;;;;5000408;28;92139;-45
2023/07/05 04:54:14;;;;;;;;;;;23.20;68.50;;;;;;5007088;28;93110;-45
2023/07/05 04:56:39;;;;;;;;;;;23.20;68.50;;;;;;5001007;28;94597;-44
2023/07/05 04:59:05;;;;;;;;;;;23.20;68.50;;;;;;5003299;28;92639;-44
2023/07/05 05:01:31;;;;;;;;;;;23.20;68.40;;;;;;5001916;28;92400;-44
2023/07/05 05:03:56;;;;;;;;;;;23.30;68.50;;;;;;5008442;28;93305;-45
2023/07/05 05:06:22;;;;;;;;;;;23.20;68.30;;;;;;5001425;28;92541;-46
2023/07/05 05:08:47;;;;;;;;;;;23.30;68.40;;;;;;4995629;28;93136;-48
2023/07/05 05:11:13;;;;;;;;;;;23.20;68.40;;;;;;5004510;28;91424;-44
2023/07/05 05:13:38;;;;;;;;;;;23.20;68.40;;;;;;5009904;28;92046;-43
2023/07/05 05:16:04;;;;;;;;;;;23.30;68.50;;;;;;5004677;28;92915;-45
2023/07/05 05:18:31;;;;;;;;;;;23.30;68.50;;;;;;4996338;28;93675;-45
2023/07/05 05:20:57;;;;;;;;;;;23.20;68.40;;;;;;5005364;28;93716;-45
2023/07/05 05:23:22;;;;;;;;;;;23.30;68.50;;;;;;5010294;28;92725;-44
2023/07/05 05:25:49;;;;;;;;;;;23.30;68.50;;;;;;5005341;28;92176;-45
2023/07/05 05:28:14;;;;;;;;;;;23.30;68.50;;;;;;4998139;28;93850;-45
2023/07/05 05:30:41;;;;;;;;;;;23.30;68.60;;;;;;5009474;28;92509;-45
2023/07/05 05:33:06;;;;;;;;;;;23.20;68.60;;;;;;5012097;28;92358;-45
2023/07/05 05:35:34;;;;;;;;;;;23.20;68.60;;;;;;4999008;28;93550;-44
2023/07/05 05:38:00;;;;;;;;;;;23.20;68.60;;;;;;5006215;28;92293;-46
2023/07/05 05:40:26;;;;;;;;;;;23.30;68.70;;;;;;5011190;28;93061;-44
2023/07/05 05:42:51;;;;;;;;;;;23.30;68.70;;;;;;5009281;28;94134;-45
2023/07/05 05:45:17;;;;;;;;;;;23.20;68.70;;;;;;5002973;28;93138;-44
2023/07/05 05:47:42;;;;;;;;;;;23.30;68.70;;;;;;5003902;28;95562;-46
2023/07/05 05:50:08;;;;;;;;;;;23.30;68.80;;;;;;5012453;28;93150;-44
2023/07/05 05:52:34;;;;;;;;;;;23.30;68.80;;;;;;5010223;28;94066;-49
2023/07/05 05:54:59;;;;;;;;;;;23.30;68.80;;;;;;5001042;28;93448;-46
2023/07/05 05:57:25;;;;;;;;;;;23.30;68.80;;;;;;5002330;28;92280;-44
2023/07/05 05:59:50;;;;;;;;;;;23.30;68.80;;;;;;5012619;28;92902;-44
2023/07/05 06:02:16;;;;;;;;;;;23.30;68.90;;;;;;5006844;28;93186;-47
2023/07/05 06:04:41;;;;;;;;;;;23.30;68.90;;;;;;5000809;28;93339;-47
2023/07/05 06:07:07;;;;;;;;;;;23.30;68.90;;;;;;5006738;28;93162;-46
2023/07/05 06:09:42;;;;;;;;;;;23.30;68.90;;;;;;5012178;28;93196;-45
2023/07/05 06:12:08;;;;;;;;;;;23.30;68.90;;;;;;5010550;28;92169;-46
2023/07/05 06:14:33;;;;;;;;;;;23.30;68.90;;;;;;5002566;28;93194;-45
2023/07/05 06:16:59;;;;;;;;;;;23.30;69.00;;;;;;5005364;28;92255;-46
2023/07/05 06:19:24;;;;;;;;;;;23.30;69.00;;;;;;5011861;28;93866;-43
2023/07/05 06:21:50;;;;;;;;;;;23.30;69.10;;;;;;5001487;28;93135;-47
2023/07/05 06:24:15;;;;;;;;;;;23.30;69.10;;;;;;5005678;28;91846;-46
2023/07/05 06:26:41;;;;;;;;;;;23.30;69.00;;;;;;5008211;28;92380;-44
2023/07/05 06:29:07;;;;;;;;;;;23.30;69.10;;;;;;5008240;28;93035;-44
2023/07/05 06:31:33;;;;;;;;;;;23.30;69.10;;;;;;5000648;28;94023;-44
2023/07/05 06:34:01;;;;;;;;;;;23.30;69.10;;;;;;4999955;28;94274;-44
2023/07/05 06:36:27;;;;;;;;;;;23.30;69.20;;;;;;5004540;28;92236;-44
2023/07/05 06:38:52;;;;;;;;;;;23.30;69.20;;;;;;5011680;28;92559;-47
2023/07/05 06:41:18;;;;;;;;;;;23.30;69.20;;;;;;4994169;28;93164;-45
2023/07/05 06:43:44;;;;;;;;;;;23.30;69.20;;;;;;5008359;28;92383;-45
2023/07/05 06:46:09;;;;;;;;;;;23.30;69.20;;;;;;5007288;28;92404;-44
2023/07/05 06:48:35;;;;;;;;;;;23.30;69.20;;;;;;5009596;28;92329;-46
2023/07/05 06:51:00;;;;;;;;;;;23.30;69.20;;;;;;4995355;28;93237;-46
2023/07/05 06:53:26;;;;;;;;;;;23.30;69.20;;;;;;5000186;28;93261;-46
2023/07/05 06:55:51;;;;;;;;;;;23.30;69.30;;;;;;5009363;28;93133;-47
2023/07/05 06:58:19;;;;;;;;;;;23.30;69.20;;;;;;5009630;28;93604;-46
2023/07/05 07:00:46;;;;;;;;;;;23.30;69.20;;;;;;5003854;28;93165;-46
2023/07/05 07:03:11;;;;;;;;;;;23.30;69.30;;;;;;4997174;28;92991;-47
2023/07/05 07:05:37;;;;;;;;;;;23.30;69.30;;;;;;5009831;28;92035;-44
2023/07/05 07:08:02;;;;;;;;;;;23.30;69.30;;;;;;5008618;28;93633;-44
2023/07/05 07:10:28;;;;;;;;;;;23.30;69.40;;;;;;5008578;28;92610;-44
2023/07/05 07:12:53;;;;;;;;;;;23.30;69.40;;;;;;5003949;28;92632;-44
2023/07/05 07:15:19;;;;;;;;;;;23.30;69.40;;;;;;5013730;28;93139;-47
2023/07/05 07:17:45;;;;;;;;;;;23.30;69.60;;;;;;5005835;28;92214;-44
2023/07/05 07:20:11;;;;;;;;;;;23.30;69.50;;;;;;5002095;28;94231;-46
2023/07/05 07:22:36;;;;;;;;;;;23.30;69.40;;;;;;5004162;28;92060;-45
2023/07/05 07:25:02;;;;;;;;;;;23.30;69.40;;;;;;5007763;28;92397;-46
2023/07/05 07:27:27;;;;;;;;;;;23.30;69.40;;;;;;5005152;28;93186;-47
2023/07/05 07:29:53;;;;;;;;;;;23.40;69.60;;;;;;4998580;28;93513;-44
2023/07/05 07:32:19;;;;;;;;;;;23.30;69.50;;;;;;5007303;28;94100;-44
2023/07/05 07:34:45;;;;;;;;;;;23.30;69.50;;;;;;5009709;28;94396;-46
2023/07/05 07:37:10;;;;;;;;;;;23.30;69.50;;;;;;5002380;28;91843;-45
2023/07/05 07:39:36;;;;;;;;;;;23.40;69.60;;;;;;4992840;28;93108;-45
2023/07/05 07:42:01;;;;;;;;;;;23.40;69.60;;;;;;5004403;28;92209;-51
2023/07/05 07:44:27;;;;;;;;;;;23.40;69.60;;;;;;5008030;28;93062;-47
2023/07/05 07:46:52;;;;;;;;;;;23.40;69.60;;;;;;4998730;28;94535;-49
2023/07/05 07:49:18;;;;;;;;;;;23.40;69.60;;;;;;4993914;28;92233;-49
2023/07/05 07:51:44;;;;;;;;;;;23.40;69.60;;;;;;5006605;28;92437;-49
2023/07/05 07:54:15;;;;;;;;;;;23.40;69.50;;;;;;5007815;28;94685;-46
2023/07/05 07:56:44;;;;;;;;;;;23.40;69.50;;;;;;5008565;28;92325;-47
2023/07/05 07:59:10;;;;;;;;;;;23.50;69.70;;;;;;5011352;28;92966;-50
2023/07/05 08:01:37;;;;;;;;;;;23.40;69.60;;;;;;5009629;28;91746;-49
2023/07/05 08:04:03;;;;;;;;;;;23.50;69.70;;;;;;5008199;28;93118;-46
2023/07/05 08:06:30;;;;;;;;;;;23.40;69.60;;;;;;5006963;28;92304;-49
2023/07/05 08:08:56;;;;;;;;;;;23.40;69.70;;;;;;5008217;28;93390;-45
2023/07/05 08:11:21;;;;;;;;;;;23.40;69.70;;;;;;5006882;28;93414;-47
2023/07/05 08:13:48;;;;;;;;;;;23.50;69.70;;;;;;5006540;28;96392;-51
2023/07/05 08:16:14;;;;;;;;;;;23.50;69.70;;;;;;5008825;28;92131;-44
2023/07/05 08:18:40;;;;;;;;;;;23.50;69.90;;;;;;5008102;28;92481;-45
2023/07/05 08:21:05;;;;;;;;;;;23.50;69.60;;;;;;5011826;28;93131;-44
2023/07/05 08:23:31;;;;;;;;;;;23.50;69.50;;;;;;5006154;28;92848;-44
2023/07/05 08:25:56;;;;;;;;;;;23.50;69.50;;;;;;5006359;28;92335;-48
2023/07/05 08:28:23;;;;;;;;;;;23.50;69.60;;;;;;5010189;28;92302;-46
2023/07/05 08:30:52;;;;;;;;;;;23.50;69.60;;;;;;5006817;28;93845;-44
2023/07/05 08:33:17;;;;;;;;;;;23.60;69.60;;;;;;5008338;28;94063;-46
2023/07/05 08:35:43;;;;;;;;;;;23.60;69.80;;;;;;5007134;28;92185;-45
2023/07/05 08:38:09;;;;;;;;;;;23.60;69.70;;;;;;5009411;28;92960;-46
2023/07/05 08:40:38;;;;;;;;;;;23.60;69.90;;;;;;5008945;28;93024;-45
2023/07/05 08:43:11;;;;;;;;;;;23.60;69.80;;;;;;5006654;28;92404;-44
2023/07/05 08:45:43;;;;;;;;;;;23.60;70.30;;;;;;5008666;28;93138;-47
2023/07/05 08:48:11;;;;;;;;;;;23.60;70.10;;;;;;5008153;28;92214;-44
2023/07/05 08:50:41;;;;;;;;;;;23.60;69.90;;;;;;5008676;28;92407;-45
2023/07/05 08:53:11;;;;;;;;;;;23.60;69.70;;;;;;5007365;28;94336;-44
2023/07/05 08:55:46;;;;;;;;;;;23.60;69.90;;;;;;5003439;28;92400;-44
2023/07/05 08:58:13;;;;;;;;;;;23.60;69.70;;;;;;5003379;28;93559;-45
2023/07/05 09:00:45;;;;;;;;;;;23.60;69.70;;;;;;5005442;28;93275;-44
2023/07/05 09:03:11;;;;;;;;;;;23.70;69.80;;;;;;5009548;28;92078;-45
2023/07/05 09:05:36;;;;;;;;;;;23.70;69.80;;;;;;5012683;28;93254;-44
2023/07/05 09:08:13;;;;;;;;;;;23.70;69.80;;;;;;5009390;28;92162;-45
2023/07/05 09:10:46;;;;;;;;;;;23.70;69.80;;;;;;5010185;28;92542;-46
2023/07/05 09:13:20;;;;;;;;;;;23.70;70.50;;;;;;5010437;28;93535;-44
2023/07/05 09:16:01;;;;;;;;;;;23.70;69.90;;;;;;5012108;28;91506;-44
2023/07/05 09:18:34;;;;;;;;;;;23.70;70.00;;;;;;5008449;28;92033;-45
2023/07/05 09:21:00;;;;;;;;;;;23.70;70.00;;;;;;5010287;28;93325;-45
2023/07/05 09:23:34;;;;;;;;;;;23.70;70.00;;;;;;5005509;28;93329;-43
2023/07/05 09:26:07;;;;;;;;;;;23.70;70.30;;;;;;5012652;28;93304;-45
2023/07/05 09:28:45;;;;;;;;;;;23.80;70.10;;;;;;5008194;28;92294;-44
2023/07/05 09:31:12;;;;;;;;;;;23.70;70.10;;;;;;5007927;28;92502;-46
2023/07/05 09:33:40;;;;;;;;;;;23.80;70.10;;;;;;5011339;28;94228;-44
2023/07/05 09:36:19;;;;;;;;;;;23.80;70.20;;;;;;5010560;28;92167;-46
2023/07/05 09:38:47;;;;;;;;;;;23.80;70.00;;;;;;5009727;28;92625;-43
2023/07/05 09:41:25;;;;;;;;;;;23.80;70.00;;;;;;5011112;28;92088;-44
2023/07/05 09:43:50;;;;;;;;;;;23.80;70.10;;;;;;5005902;28;93432;-45
2023/07/05 09:46:15;;;;;;;;;;;23.80;70.30;;;;;;5013006;28;92601;-44
2023/07/05 09:48:42;;;;;;;;;;;23.80;70.20;;;;;;5011029;28;94863;-44
2023/07/05 09:51:08;;;;;;;;;;;23.90;70.80;;;;;;5005170;28;92577;-45
2023/07/05 09:53:47;;;;;;;;;;;23.90;70.10;;;;;;5011513;28;93017;-44
2023/07/05 09:56:14;;;;;;;;;;;23.90;70.10;;;;;;5007214;28;92141;-46
2023/07/05 09:58:43;;;;;;;;;;;23.90;70.10;;;;;;5011401;28;93807;-44
2023/07/05 10:01:17;;;;;;;;;;;23.90;70.10;;;;;;5009457;28;94279;-48
2023/07/05 10:03:56;;;;;;;;;;;24.00;70.30;;;;;;5010029;28;92152;-47
2023/07/05 10:06:23;;;;;;;;;;;24.00;70.10;;;;;;5005633;28;93680;-44
2023/07/05 10:08:50;;;;;;;;;;;24.00;70.20;;;;;;5010852;28;93702;-44
2023/07/05 10:11:19;;;;;;;;;;;24.00;70.20;;;;;;5011242;28;92170;-44
2023/07/05 10:13:45;;;;;;;;;;;24.00;70.20;;;;;;5011060;28;94064;-46
2023/07/05 10:16:10;;;;;;;;;;;24.00;70.20;;;;;;5008702;28;92315;-45
2023/07/05 10:18:39;;;;;;;;;;;24.10;70.20;;;;;;5012599;28;92462;-45
2023/07/05 10:21:09;;;;;;;;;;;24.10;70.20;;;;;;5004514;28;94363;-44
2023/07/05 10:23:35;;;;;;;;;;;24.10;70.10;;;;;;5005833;28;93000;-50
2023/07/05 10:26:02;;;;;;;;;;;24.10;70.00;;;;;;5011614;28;93544;-45
2023/07/05 10:28:29;;;;;;;;;;;24.10;70.10;;;;;;4999689;28;92189;-44
2023/07/05 10:30:56;;;;;;;;;;;24.20;70.10;;;;;;5011923;28;91454;-47
2023/07/05 10:33:27;;;;;;;;;;;24.20;70.10;;;;;;5010994;28;93136;-45
2023/07/05 10:35:53;;;;;;;;;;;24.20;70.10;;;;;;5010413;28;92189;-43
2023/07/05 10:38:32;;;;;;;;;;;24.20;70.00;;;;;;5006757;28;93000;-46
2023/07/05 10:41:00;;;;;;;;;;;24.30;70.00;;;;;;5009660;28;92958;-44
2023/07/05 10:43:28;;;;;;;;;;;24.30;69.90;;;;;;5003395;28;92190;-44
2023/07/05 10:45:54;;;;;;;;;;;24.30;69.90;;;;;;5008888;28;92388;-47
2023/07/05 10:48:29;;;;;;;;;;;24.30;69.90;;;;;;5009415;28;94657;-44
2023/07/05 10:50:55;;;;;;;;;;;24.40;69.80;;;;;;5008302;28;92142;-45
2023/07/05 10:53:23;;;;;;;;;;;24.40;69.70;;;;;;5013150;28;92598;-46
2023/07/05 10:55:54;;;;;;;;;;;24.40;69.70;;;;;;5008710;28;91478;-44
2023/07/05 10:58:21;;;;;;;;;;;24.50;69.80;;;;;;5002143;28;92095;-44
2023/07/05 11:01:03;;;;;;;;;;;24.50;69.80;;;;;;5011236;28;93131;-45
2023/07/05 11:03:41;;;;;;;;;;;24.50;69.80;;;;;;5009288;28;93173;-45
2023/07/05 11:06:06;;;;;;;;;;;24.50;69.80;;;;;;5008379;28;93403;-44
2023/07/05 11:08:38;;;;;;;;;;;24.50;69.80;;;;;;5005474;28;93915;-44
2023/07/05 11:11:24;;;;;;;;;;;24.50;69.70;;;;;;5004128;28;92065;-44
2023/07/05 11:13:51;;;;;;;;;;;24.50;69.80;;;;;;5005820;28;92393;-47
2023/07/05 11:16:26;;;;;;;;;;;24.60;69.80;;;;;;5011467;28;93263;-45
2023/07/05 11:18:58;;;;;;;;;;;24.60;69.60;;;;;;5011343;28;92412;-46
2023/07/05 11:21:39;;;;;;;;;;;24.60;69.60;;;;;;5003581;28;92455;-44
2023/07/05 11:24:08;;;;;;;;;;;24.60;69.70;;;;;;5008410;28;94017;-47
2023/07/05 11:26:39;;;;;;;;;;;24.60;69.70;;;;;;5007171;28;93928;-46
2023/07/05 11:29:24;;;;;;;;;;;24.60;69.70;;;;;;5005755;28;93854;-44
2023/07/05 11:31:49;;;;;;;;;;;24.60;69.70;;;;;;5004815;28;92228;-45
2023/07/05 11:34:21;;;;;;;;;;;24.60;69.70;;;;;;5008785;28;92572;-44
2023/07/05 11:37:06;;;;;;;;;;;24.60;69.70;;;;;;5008141;28;92697;-47
2023/07/05 11:39:35;;;;;;;;;;;24.60;69.70;;;;;;5006846;28;92442;-45
2023/07/05 11:42:22;;;;;;;;;;;24.60;69.70;;;;;;5006979;28;92006;-46
2023/07/05 11:45:08;;;;;;;;;;;24.60;69.70;;;;;;5002646;28;92128;-45
2023/07/05 11:47:33;;;;;;;;;;;24.60;69.70;;;;;;5004185;28;92571;-45
2023/07/05 11:50:06;;;;;;;;;;;24.60;69.70;;;;;;5007709;28;93017;-45
2023/07/05 11:52:36;;;;;;;;;;;24.60;70.10;;;;;;5009301;28;92690;-45
2023/07/05 11:55:02;;;;;;;;;;;24.60;69.40;;;;;;5006403;28;93081;-49
2023/07/05 11:57:30;;;;;;;;;;;24.60;69.50;;;;;;5008882;28;92785;-46
2023/07/05 12:00:04;;;;;;;;;;;24.60;69.50;;;;;;5006076;28;92839;-47
2023/07/05 12:02:32;;;;;;;;;;;24.60;69.50;;;;;;5013076;28;92384;-45
2023/07/05 12:05:00;;;;;;;;;;;24.60;69.50;;;;;;5002945;28;92188;-46
2023/07/05 12:07:26;;;;;;;;;;;24.60;69.50;;;;;;5003266;28;91997;-44
2023/07/05 12:09:54;;;;;;;;;;;24.60;69.60;;;;;;5000387;28;96048;-45
2023/07/05 12:12:20;;;;;;;;;;;24.60;69.80;;;;;;5003218;28;91568;-45
2023/07/05 12:14:45;;;;;;;;;;;24.50;69.70;;;;;;5008630;28;93235;-45
2023/07/05 12:17:14;;;;;;;;;;;24.60;69.80;;;;;;5009834;28;93189;-47
2023/07/05 12:19:40;;;;;;;;;;;24.50;69.80;;;;;;5006101;28;93180;-44
2023/07/05 12:22:08;;;;;;;;;;;24.50;69.70;;;;;;5010055;28;94533;-45
2023/07/05 12:24:44;;;;;;;;;;;24.50;69.80;;;;;;5008984;28;93685;-44
2023/07/05 12:27:18;;;;;;;;;;;24.50;69.70;;;;;;5004771;28;92184;-44
2023/07/05 12:29:48;;;;;;;;;;;24.50;69.60;;;;;;5006021;28;93514;-45
2023/07/05 12:32:18;;;;;;;;;;;24.50;69.60;;;;;;5008606;28;92116;-44
2023/07/05 12:34:44;;;;;;;;;;;24.60;69.60;;;;;;5007847;28;92326;-44
2023/07/05 12:37:10;;;;;;;;;;;24.50;69.60;;;;;;5009048;28;93608;-46
2023/07/05 12:39:38;;;;;;;;;;;24.50;69.50;;;;;;5006833;28;92337;-46
2023/07/05 12:42:08;;;;;;;;;;;24.50;69.60;;;;;;5008720;28;92253;-45
2023/07/05 12:44:34;;;;;;;;;;;24.50;69.60;;;;;;5005217;28;94098;-46
2023/07/05 12:47:12;;;;;;;;;;;24.50;69.60;;;;;;5012210;28;92154;-45
2023/07/05 12:49:37;;;;;;;;;;;24.50;69.60;;;;;;5002532;28;92355;-44
2023/07/05 12:52:03;;;;;;;;;;;24.50;69.50;;;;;;5010150;28;92155;-45
2023/07/05 12:54:29;;;;;;;;;;;24.50;69.50;;;;;;5005577;28;92414;-45
2023/07/05 12:56:56;;;;;;;;;;;24.50;69.50;;;;;;5005930;28;93011;-45
2023/07/05 12:59:28;;;;;;;;;;;24.60;69.60;;;;;;5009821;28;92305;-45
2023/07/05 13:01:53;;;;;;;;;;;24.60;69.50;;;;;;5003474;28;92393;-44
2023/07/05 13:04:19;;;;;;;;;;;24.50;69.50;;;;;;5009324;28;94353;-45
2023/07/05 13:06:47;;;;;;;;;;;24.60;69.60;;;;;;5009442;28;92169;-44
2023/07/05 13:09:22;;;;;;;;;;;24.60;69.60;;;;;;5002673;28;95465;-45
2023/07/05 13:11:56;;;;;;;;;;;24.50;69.50;;;;;;5007458;28;92190;-44
2023/07/05 13:14:27;;;;;;;;;;;24.60;69.50;;;;;;5005362;28;93982;-44
2023/07/05 13:16:56;;;;;;;;;;;24.50;69.40;;;;;;5006893;28;92389;-46
2023/07/05 13:19:33;;;;;;;;;;;24.60;69.50;;;;;;5008736;28;92219;-44
2023/07/05 13:22:12;;;;;;;;;;;24.60;69.50;;;;;;5002365;28;94010;-44
2023/07/05 13:24:43;;;;;;;;;;;24.60;69.50;;;;;;5006894;28;93043;-46
2023/07/05 13:27:35;;;;;;;;;;;24.60;69.50;;;;;;5007376;28;91342;-44
2023/07/05 13:30:14;;;;;;;;;;;24.60;69.40;;;;;;5005507;28;92254;-44
2023/07/05 13:32:41;;;;;;;;;;;24.60;69.40;;;;;;5009490;28;92008;-46
2023/07/05 13:35:07;;;;;;;;;;;24.60;69.40;;;;;;5005922;28;92970;-46
2023/07/05 13:37:32;;;;;;;;;;;24.60;69.40;;;;;;5008650;28;93066;-46
2023/07/05 13:40:02;;;;;;;;;;;24.60;69.40;;;;;;5005607;28;92726;-45
2023/07/05 13:42:27;;;;;;;;;;;24.60;69.50;;;;;;5009051;28;94092;-46
2023/07/05 13:44:53;;;;;;;;;;;24.60;69.40;;;;;;5006260;28;93330;-46
2023/07/05 13:47:18;;;;;;;;;;;24.50;69.40;;;;;;5010120;28;92207;-45
2023/07/05 13:49:44;;;;;;;;;;;24.50;69.40;;;;;;5011850;28;92468;-44
2023/07/05 13:52:14;;;;;;;;;;;24.50;69.30;;;;;;5013588;28;92529;-44
2023/07/05 13:54:40;;;;;;;;;;;24.60;69.40;;;;;;5008989;28;92112;-45
2023/07/05 13:57:12;;;;;;;;;;;24.60;69.40;;;;;;5009588;28;93458;-44
2023/07/05 13:59:37;;;;;;;;;;;24.50;69.30;;;;;;5008150;28;94343;-44
2023/07/05 14:02:03;;;;;;;;;;;24.60;69.40;;;;;;5012131;28;93623;-46
2023/07/05 14:04:28;;;;;;;;;;;24.60;69.40;;;;;;5009194;28;93182;-45
2023/07/05 14:06:54;;;;;;;;;;;24.60;69.30;;;;;;5011589;28;92061;-45
2023/07/05 14:09:19;;;;;;;;;;;24.60;69.30;;;;;;5009432;28;93267;-44
2023/07/05 14:11:46;;;;;;;;;;;24.60;69.30;;;;;;5010719;28;93070;-45
2023/07/05 14:14:12;;;;;;;;;;;24.60;69.30;;;;;;5013496;28;92719;-44
2023/07/05 14:16:38;;;;;;;;;;;24.60;69.30;;;;;;5008024;28;94219;-44
2023/07/05 14:19:04;;;;;;;;;;;24.60;69.30;;;;;;5010306;28;92214;-46
2023/07/05 14:21:33;;;;;;;;;;;24.60;69.30;;;;;;5010912;28;92455;-45